Time;durP1;ratioP1;P1;durP2;ratioP2;P2;SDS_P1;SDS_P2;PMS_P1;PMS_P2;Temp;Humidity;BMP_temperature;BMP_pressure;BME280_temperature;BME280_humidity;BME280_pressure;Samples;Min_cycle;Max_cycle;Signal;HPM_P1;HPM_P2
2022/05/24 00:00:32;;;;;;;;;4.00;2.67;;;;;16.03;100.00;99783.81;4873337;29;45472;-83
2022/05/24 00:02:58;;;;;;;;;3.33;2.00;;;;;15.95;100.00;99777.75;4890515;29;45411;-83
2022/05/24 00:05:26;;;;;;;;;3.33;3.33;;;;;15.88;100.00;99768.97;4891485;29;45395;-82
2022/05/24 00:07:52;;;;;;;;;2.33;2.33;;;;;15.76;100.00;99770.13;4890074;29;45526;-82
2022/05/24 00:10:21;;;;;;;;;5.33;3.00;;;;;15.72;100.00;99776.47;4891658;29;45447;-82
2022/05/24 00:12:47;;;;;;;;;3.67;3.67;;;;;15.72;100.00;99795.25;4874163;29;47984;-82
2022/05/24 00:15:23;;;;;;;;;3.33;3.33;;;;;15.65;100.00;99788.19;4889408;29;44859;-82
2022/05/24 00:18:07;;;;;;;;;2.00;2.00;;;;;15.64;100.00;99798.97;4890508;29;45417;-82
2022/05/24 00:20:42;;;;;;;;;5.00;3.00;;;;;15.62;100.00;99809.72;4874263;29;45307;-82
2022/05/24 00:23:07;;;;;;;;;3.33;3.00;;;;;15.58;100.00;99832.16;4889430;29;45693;-82
2022/05/24 00:25:36;;;;;;;;;3.00;3.00;;;;;15.56;100.00;99824.13;4889752;29;45449;-82
2022/05/24 00:28:03;;;;;;;;;2.00;2.00;;;;;15.52;100.00;99824.25;4879893;29;44970;-82
2022/05/24 00:30:30;;;;;;;;;5.33;3.67;;;;;15.58;100.00;99829.47;4874667;28;45433;-82
2022/05/24 00:32:56;;;;;;;;;4.00;4.00;;;;;15.53;100.00;99810.81;4857868;29;47748;-83
2022/05/24 00:35:22;;;;;;;;;2.67;2.00;;;;;15.62;100.00;99808.84;4874774;28;45315;-82
2022/05/24 00:37:49;;;;;;;;;3.00;3.00;;;;;15.67;100.00;99817.66;4858378;29;45494;-82
2022/05/24 00:40:25;;;;;;;;;3.00;3.00;;;;;15.65;100.00;99801.59;4875581;29;45412;-82
2022/05/24 00:42:51;;;;;;;;;3.00;3.00;;;;;15.64;100.00;99807.91;4875604;28;45666;-82
2022/05/24 00:45:29;;;;;;;;;2.67;2.00;;;;;15.72;100.00;99794.34;4873259;28;45538;-82
2022/05/24 00:48:01;;;;;;;;;3.00;3.00;;;;;15.70;100.00;99789.00;4874332;28;45333;-82
2022/05/24 00:50:34;;;;;;;;;3.00;3.00;;;;;15.74;100.00;99797.91;4858190;29;45460;-82
2022/05/24 00:53:29;;;;;;;;;3.00;3.00;;;;;15.73;100.00;99801.47;4876154;29;46675;-82
2022/05/24 00:56:01;;;;;;;;;2.00;2.00;;;;;15.76;100.00;99796.06;4858509;29;45363;-83
2022/05/24 00:58:51;;;;;;;;;2.67;2.67;;;;;15.80;100.00;99804.00;4870601;29;45411;-82
2022/05/24 01:01:39;;;;;;;;;3.00;2.00;;;;;15.81;100.00;99794.13;4854283;29;45454;-82
2022/05/24 01:04:07;;;;;;;;;3.67;3.67;;;;;15.77;100.00;99803.16;4856205;29;45660;-81
2022/05/24 01:06:34;;;;;;;;;2.00;2.00;;;;;15.73;100.00;99796.13;4871397;29;45410;-81
2022/05/24 01:09:05;;;;;;;;;3.00;3.00;;;;;15.69;100.00;99795.25;4855303;29;44766;-82
2022/05/24 01:11:33;;;;;;;;;3.00;3.00;;;;;15.73;100.00;99806.84;4856456;29;44821;-82
2022/05/24 01:14:01;;;;;;;;;1.67;1.00;;;;;15.67;100.00;99796.22;4870799;29;46319;-82
2022/05/24 01:16:27;;;;;;;;;3.67;3.00;;;;;15.65;100.00;99801.59;4869952;29;45506;-83
2022/05/24 01:18:52;;;;;;;;;1.67;1.67;;;;;15.61;100.00;99794.53;4854352;29;45388;-82
2022/05/24 01:21:18;;;;;;;;;3.00;2.33;;;;;15.70;100.00;99818.47;4854391;29;45255;-81
2022/05/24 01:23:51;;;;;;;;;1.67;1.00;;;;;15.72;100.00;99805.97;4870418;29;45436;-82
2022/05/24 01:26:50;;;;;;;;;2.00;2.00;;;;;15.72;100.00;99803.28;4870400;29;45370;-81
2022/05/24 01:29:16;;;;;;;;;2.33;1.33;;;;;15.67;100.00;99805.13;4874159;29;45424;-83
2022/05/24 01:37:13;;;;;;;;;2.67;2.33;;;;;15.60;99.66;99806.19;4872154;29;45449;-82
2022/05/24 01:39:41;;;;;;;;;2.00;2.00;;;;;15.58;99.85;99802.66;4854921;29;44925;-82
2022/05/24 01:42:08;;;;;;;;;1.33;1.33;;;;;15.50;99.34;99804.63;4854466;29;45599;-82
2022/05/24 01:44:46;;;;;;;;;3.00;2.67;;;;;15.50;99.44;99820.72;4854318;29;47080;-82
2022/05/24 01:47:14;;;;;;;;;3.00;2.00;;;;;15.51;99.32;99817.09;4855987;29;45946;-83
2022/05/24 01:49:44;;;;;;;;;1.00;1.00;;;;;15.50;99.58;99820.72;4888795;29;45473;-83
2022/05/24 01:52:18;;;;;;;;;2.00;2.00;;;;;15.52;99.62;99821.56;4873474;29;45677;-83
2022/05/24 01:54:48;;;;;;;;;2.00;2.00;;;;;15.53;99.25;99831.34;4890468;29;45481;-83
2022/05/24 01:57:21;;;;;;;;;1.33;1.33;;;;;15.47;98.98;99820.75;4873458;29;45455;-83
2022/05/24 01:59:50;;;;;;;;;2.00;2.00;;;;;15.47;98.79;99836.84;4889618;29;45464;-82
2022/05/24 02:02:17;;;;;;;;;1.00;1.00;;;;;15.39;98.84;99837.91;4871674;29;45504;-83
2022/05/24 02:04:43;;;;;;;;;4.00;2.00;;;;;15.29;100.00;99830.06;4885002;29;47741;-83
2022/05/24 02:07:18;;;;;;;;;1.00;1.00;;;;;15.19;100.00;99837.41;4874842;29;45673;-83
2022/05/24 02:09:50;;;;;;;;;2.00;2.00;;;;;15.00;100.00;99829.69;4874042;29;45519;-83
2022/05/24 02:12:21;;;;;;;;;0.67;0.67;;;;;14.89;100.00;99828.16;4895049;28;44941;-82
2022/05/24 02:15:01;;;;;;;;;1.00;1.00;;;;;14.86;100.00;99818.38;4896381;28;45417;-82
2022/05/24 02:17:31;;;;;;;;;2.00;2.00;;;;;14.80;100.00;99824.75;4879502;29;45619;-82
2022/05/24 02:20:01;;;;;;;;;2.00;2.00;;;;;14.79;100.00;99828.31;4898023;28;45420;-82
2022/05/24 02:22:28;;;;;;;;;1.00;1.00;;;;;14.82;100.00;99826.50;4895677;28;45491;-82
2022/05/24 02:25:06;;;;;;;;;1.33;1.33;;;;;14.82;100.00;99829.16;4894603;28;46086;-82
2022/05/24 02:27:38;;;;;;;;;1.67;1.67;;;;;14.78;100.00;99831.00;4875133;29;45858;-82
2022/05/24 02:30:04;;;;;;;;;2.00;2.00;;;;;14.73;100.00;99831.09;4875526;29;45491;-83
2022/05/24 02:32:31;;;;;;;;;1.67;1.00;;;;;14.75;100.00;99841.78;4874734;29;46403;-82
2022/05/24 02:34:56;;;;;;;;;1.00;1.00;;;;;14.74;100.00;99854.25;4856989;29;45757;-82
2022/05/24 02:37:21;;;;;;;;;3.00;1.33;;;;;14.71;100.00;99843.63;4872783;29;45380;-82
2022/05/24 02:42:31;;;;;;;;;2.00;2.00;;;;;14.74;100.00;99831.97;4873267;29;45555;-82
2022/05/24 02:44:56;;;;;;;;;1.00;1.00;;;;;14.78;100.00;99841.72;4854770;29;46028;-82
2022/05/24 02:47:22;;;;;;;;;2.00;2.00;;;;;14.79;100.00;99841.69;4856631;29;45975;-83
2022/05/24 02:49:48;;;;;;;;;1.33;1.33;;;;;14.79;100.00;99836.34;4872222;29;45532;-83
2022/05/24 02:52:15;;;;;;;;;2.00;2.00;;;;;14.85;100.00;99835.34;4855794;29;45438;-81
2022/05/24 02:54:41;;;;;;;;;1.33;1.33;;;;;14.87;100.00;99856.75;4860797;29;47341;-82
2022/05/24 02:57:06;;;;;;;;;2.00;2.00;;;;;14.88;100.00;99854.03;4877298;29;45698;-82
2022/05/24 02:59:33;;;;;;;;;1.00;1.00;;;;;14.88;100.00;99855.81;4860421;29;45535;-82
2022/05/24 03:01:59;;;;;;;;;2.00;1.00;;;;;14.90;100.00;99854.88;4860437;29;45527;-82
2022/05/24 03:04:24;;;;;;;;;2.00;2.00;;;;;14.89;100.00;99849.56;4859025;29;47859;-83
2022/05/24 03:09:35;;;;;;;;;1.67;1.67;;;;;14.86;100.00;99858.53;4874979;29;45448;-82
2022/05/24 03:14:49;;;;;;;;;2.00;2.00;;;;;14.86;100.00;99855.84;4872198;29;45400;-82
2022/05/24 03:17:16;;;;;;;;;1.00;1.00;;;;;14.92;100.00;99866.44;4855858;29;45507;-82
2022/05/24 03:20:18;;;;;;;;;1.67;1.67;;;;;14.94;100.00;99869.97;4855483;29;45472;-81
2022/05/24 03:22:44;;;;;;;;;2.33;1.00;;;;;14.85;100.00;99880.00;4855754;29;45421;-83
2022/05/24 03:25:09;;;;;;;;;3.00;1.33;;;;;14.77;100.00;99877.44;4856024;29;48352;-83
2022/05/24 03:27:35;;;;;;;;;2.00;2.00;;;;;14.76;100.00;99886.34;4874980;29;45413;-82
2022/05/24 03:30:01;;;;;;;;;2.33;2.33;;;;;14.69;100.00;99888.25;4858472;29;45483;-82
2022/05/24 03:32:27;;;;;;;;;1.00;1.00;;;;;14.70;100.00;99891.81;4875809;29;44917;-83
2022/05/24 03:34:52;;;;;;;;;3.00;3.00;;;;;14.67;100.00;99891.88;4857877;29;47221;-83
2022/05/24 03:37:18;;;;;;;;;2.00;2.00;;;;;14.60;100.00;99889.31;4855820;29;45642;-82
2022/05/24 03:39:43;;;;;;;;;2.33;2.33;;;;;14.63;100.00;99884.81;4857388;29;44917;-81
2022/05/24 03:42:15;;;;;;;;;1.00;1.00;;;;;14.64;100.00;99890.13;4856705;29;45876;-82
2022/05/24 03:44:42;;;;;;;;;1.00;1.00;;;;;14.62;100.00;99894.59;4855731;29;48263;-83
2022/05/24 03:47:08;;;;;;;;;2.33;2.00;;;;;14.52;100.00;99896.53;4854571;29;44867;-82
2022/05/24 03:49:33;;;;;;;;;1.00;1.00;;;;;14.53;100.00;99908.13;4868029;29;45130;-82
2022/05/24 03:51:59;;;;;;;;;2.00;2.00;;;;;14.50;100.00;99908.16;4873437;29;45470;-82
2022/05/24 03:54:24;;;;;;;;;2.33;2.00;;;;;14.43;100.00;99910.03;4891355;29;45753;-83
2022/05/24 03:59:33;;;;;;;;;2.00;2.00;;;;;14.40;100.00;99913.66;4891404;29;45462;-83
2022/05/24 04:01:59;;;;;;;;;2.00;1.00;;;;;14.44;100.00;99921.63;4875354;29;45778;-83
2022/05/24 04:04:24;;;;;;;;;3.67;2.00;;;;;14.40;100.00;99920.78;4891454;29;46348;-81
2022/05/24 04:06:50;;;;;;;;;1.67;1.67;;;;;14.40;100.00;99931.47;4875104;29;45825;-82
2022/05/24 04:09:15;;;;;;;;;1.67;1.67;;;;;14.38;100.00;99925.25;4874614;29;45387;-83
2022/05/24 04:11:42;;;;;;;;;1.00;1.00;;;;;14.38;100.00;99931.53;4895418;29;45499;-82
2022/05/24 04:14:07;;;;;;;;;2.00;1.67;;;;;14.35;100.00;99944.06;4894999;29;46445;-83
2022/05/24 04:16:33;;;;;;;;;2.00;2.00;;;;;14.30;100.00;99921.81;4877563;29;45452;-82
2022/05/24 04:18:58;;;;;;;;;1.00;1.00;;;;;14.32;100.00;99922.69;4878488;29;45331;-82
2022/05/24 04:21:23;;;;;;;;;2.33;1.00;;;;;14.29;100.00;99930.75;4877200;29;45443;-82
2022/05/24 04:23:49;;;;;;;;;1.00;1.00;;;;;14.28;100.00;99926.31;4895013;28;45871;-81
2022/05/24 04:26:16;;;;;;;;;3.33;3.00;;;;;14.18;100.00;99914.88;4887570;29;45376;-82
2022/05/24 04:28:42;;;;;;;;;2.00;1.00;;;;;14.22;100.00;99921.94;4891811;29;45498;-82
2022/05/24 04:31:07;;;;;;;;;1.00;1.00;;;;;14.29;100.00;99939.66;4889366;29;45551;-83
2022/05/24 04:33:33;;;;;;;;;0.00;0.00;;;;;14.25;100.00;99945.09;4889919;29;45808;-83
2022/05/24 04:35:58;;;;;;;;;3.00;3.00;;;;;14.29;100.00;99946.81;4874073;29;45475;-84
2022/05/24 04:38:24;;;;;;;;;0.00;0.00;;;;;14.27;100.00;99940.59;4874531;29;45542;-83
2022/05/24 04:43:34;;;;;;;;;2.00;2.00;;;;;14.28;100.00;99940.59;4893168;29;45467;-83
2022/05/24 04:46:00;;;;;;;;;0.67;0.67;;;;;14.40;100.00;99960.91;4877279;29;45413;-83
2022/05/24 04:48:25;;;;;;;;;1.33;0.00;;;;;14.46;99.78;99963.53;4876707;29;45877;-83
2022/05/24 04:50:56;;;;;;;;;1.00;1.00;;;;;14.65;99.62;99973.97;4895073;28;45558;-84
2022/05/24 04:53:23;;;;;;;;;0.33;0.33;;;;;14.63;99.28;99960.63;4877801;29;46931;-84
2022/05/24 04:55:49;;;;;;;;;1.00;1.00;;;;;14.71;98.70;99965.84;4894824;28;44875;-83
2022/05/24 04:58:15;;;;;;;;;0.00;0.00;;;;;14.81;98.65;99959.44;4877804;29;45483;-83
2022/05/24 05:00:41;;;;;;;;;0.00;0.00;;;;;14.93;98.51;99975.31;4878847;29;45669;-83
2022/05/24 05:03:19;;;;;;;;;1.00;1.00;;;;;15.03;97.57;99976.06;4893825;28;45662;-84
2022/05/24 05:05:48;;;;;;;;;1.00;1.00;;;;;15.14;97.28;99983.91;4894425;28;45364;-83
2022/05/24 05:08:14;;;;;;;;;2.00;2.00;;;;;15.17;97.15;99973.16;4879813;29;45493;-83
2022/05/24 05:10:40;;;;;;;;;1.00;1.00;;;;;15.34;96.60;99988.91;4896127;28;45386;-83
2022/05/24 05:13:08;;;;;;;;;1.00;1.00;;;;;15.38;96.45;99988.84;4890798;29;46206;-82
2022/05/24 05:15:35;;;;;;;;;1.67;0.67;;;;;15.47;95.61;99989.56;4875059;29;45456;-83
2022/05/24 05:18:04;;;;;;;;;0.33;0.33;;;;;15.48;95.81;99980.66;4892042;29;45495;-83
2022/05/24 05:20:32;;;;;;;;;1.00;1.00;;;;;15.54;95.59;99993.94;4887626;29;44869;-82
2022/05/24 05:22:58;;;;;;;;;0.00;0.00;;;;;15.55;95.67;99995.69;4889028;29;46794;-83
2022/05/24 05:25:23;;;;;;;;;1.00;1.00;;;;;15.66;95.16;100004.41;4891774;29;45818;-83
2022/05/24 05:27:48;;;;;;;;;0.33;0.33;;;;;15.75;94.37;100008.75;4890587;29;45399;-83
2022/05/24 05:32:58;;;;;;;;;1.00;1.00;;;;;15.88;93.96;100012.09;4890614;29;45428;-83
2022/05/24 05:35:23;;;;;;;;;3.67;1.00;;;;;15.87;93.71;100007.63;4889901;29;44822;-83
2022/05/24 05:37:49;;;;;;;;;1.00;1.00;;;;;15.89;93.24;100008.50;4890611;29;45339;-82
2022/05/24 05:40:16;;;;;;;;;0.33;0.33;;;;;16.10;93.14;100013.44;4874375;29;45324;-83
2022/05/24 05:42:42;;;;;;;;;2.00;2.00;;;;;16.17;92.56;100030.28;4890009;29;47678;-84
2022/05/24 05:45:10;;;;;;;;;2.00;1.67;;;;;16.18;92.33;100014.16;4894097;28;45574;-83
2022/05/24 05:47:37;;;;;;;;;1.00;1.00;;;;;16.27;92.31;100033.66;4894310;28;45035;-82
2022/05/24 05:50:04;;;;;;;;;1.00;1.00;;;;;16.35;92.29;100037.06;4889145;28;44902;-83
2022/05/24 05:52:30;;;;;;;;;0.67;0.67;;;;;16.39;91.60;100023.53;4878059;29;45441;-84
2022/05/24 05:54:55;;;;;;;;;1.00;1.00;;;;;16.52;91.59;100042.06;4852841;29;45518;-83
2022/05/24 05:57:20;;;;;;;;;2.33;2.33;;;;;16.50;90.86;100036.75;4870574;29;45337;-83
2022/05/24 05:59:46;;;;;;;;;1.00;1.00;;;;;16.62;91.01;100040.94;4855814;29;45472;-83
2022/05/24 06:02:13;;;;;;;;;0.33;0.33;;;;;16.69;90.18;100041.72;4872298;29;47098;-83
2022/05/24 06:04:39;;;;;;;;;3.33;2.00;;;;;16.78;90.15;100046.88;4873545;29;45394;-83
2022/05/24 06:07:05;;;;;;;;;1.00;1.00;;;;;16.82;89.75;100045.91;4874836;29;45425;-84
2022/05/24 06:09:31;;;;;;;;;1.00;1.00;;;;;16.86;88.32;100041.34;4874247;29;45922;-83
2022/05/24 06:12:02;;;;;;;;;2.00;1.00;;;;;17.00;89.55;100053.53;4857901;29;45533;-82
2022/05/24 06:14:47;;;;;;;;;1.00;1.00;;;;;17.11;89.00;100057.81;4875396;29;45387;-83
2022/05/24 06:17:15;;;;;;;;;2.00;2.00;;;;;17.11;87.67;100060.50;4858440;29;45427;-83
2022/05/24 06:19:40;;;;;;;;;1.00;1.00;;;;;17.12;87.67;100070.31;4875782;29;45995;-84
2022/05/24 06:22:06;;;;;;;;;1.00;1.00;;;;;17.10;87.71;100047.97;4858142;29;47617;-83
2022/05/24 06:25:15;;;;;;;;;0.00;0.00;;;;;17.37;87.05;100073.28;4877695;29;45345;-89
2022/05/24 06:27:51;;;;;;;;;2.00;2.00;;;;;17.20;87.14;100030.69;4856709;29;45339;-87
2022/05/24 06:30:32;;;;;;;;;2.33;1.00;;;;;17.55;86.79;100071.94;4860285;29;45423;-88
2022/05/24 06:33:06;;;;;;;;;1.00;1.00;;;;;17.67;85.80;100079.69;4839379;29;45722;-88
2022/05/24 06:35:46;;;;;;;;;1.00;1.00;;;;;17.48;85.85;100052.41;4860510;29;45441;-88
2022/05/24 06:38:21;;;;;;;;;0.00;0.00;;;;;17.50;84.88;100057.75;4837765;29;44946;-88
2022/05/24 06:41:01;;;;;;;;;1.00;1.00;;;;;17.56;84.79;100077.28;4850514;29;44940;-87
2022/05/24 06:43:49;;;;;;;;;3.00;1.00;;;;;17.51;85.54;100044.25;4851813;29;46323;-87
2022/05/24 06:46:47;;;;;;;;;1.33;1.33;;;;;17.70;84.27;100087.69;4852164;29;45497;-88
2022/05/24 06:50:09;;;;;;;;;2.00;1.00;;;;;17.76;83.45;100094.72;4887964;28;45394;-88
2022/05/24 06:52:51;;;;;;;;;1.00;1.00;;;;;17.64;82.88;100087.84;4891561;29;45402;-87
2022/05/24 06:55:46;;;;;;;;;2.00;2.00;;;;;17.73;84.88;100100.16;4876937;29;45660;-88
2022/05/24 06:58:32;;;;;;;;;2.00;2.00;;;;;17.68;82.36;100097.59;4892400;29;45437;-88
2022/05/24 07:04:14;;;;;;;;;2.00;2.00;;;;;17.66;83.14;100117.41;5306355;23;47111;-85
2022/05/24 07:06:54;;;;;;;;;2.00;2.00;;;;;17.49;83.42;100064.94;4882933;29;45423;-88
2022/05/24 07:14:07;;;;;;;;;;;;;;;;;;;;;
2022/05/24 08:12:51;;;;;;;;;1.00;1.00;;;;;19.72;74.02;100144.69;4893623;29;46285;-85
2022/05/24 08:15:48;;;;;;;;;1.00;1.00;;;;;19.62;74.02;100116.22;4824245;29;45471;-86
2022/05/24 08:18:40;;;;;;;;;0.00;0.00;;;;;20.01;73.33;100145.53;4885078;29;44852;-86
2022/05/24 08:21:07;;;;;;;;;1.00;1.00;;;;;20.32;72.06;100147.16;4898008;29;45142;-87
2022/05/24 08:23:38;;;;;;;;;3.33;1.67;;;;;20.60;69.63;100144.34;4884081;29;45280;-85
2022/05/24 08:26:42;;;;;;;;;1.00;1.00;;;;;20.68;70.44;100141.38;4885027;29;44923;-86
2022/05/24 08:29:34;;;;;;;;;1.33;1.33;;;;;20.63;70.14;100127.19;4900126;29;45690;-87
2022/05/24 08:33:04;;;;;;;;;;;;;;;;;;;;;
2022/05/24 08:51:14;;;;;;;;;2.00;1.67;;;;;20.72;53.17;100133.13;5240375;23;47404;-87
2022/05/24 08:55:11;;;;;;;;;0.67;0.67;;;;;20.62;54.34;100138.91;5675140;23;45601;-88
2022/05/24 09:01:54;;;;;;;;;1.00;1.00;;;;;20.51;54.30;100129.34;4814404;29;45407;-89
2022/05/24 09:08:12;;;;;;;;;1.67;1.67;;;;;20.90;53.05;100141.44;4803480;29;45446;-89
2022/05/24 10:14:15;;;;;;;;;2.00;2.00;;;;;20.75;50.28;100164.53;4719286;29;45178;-88
2022/05/24 10:16:47;;;;;;;;;2.00;2.00;;;;;20.73;49.32;100158.31;4714940;29;45503;-88
2022/05/24 11:12:23;;;;;;;;;;;;;;;;;;;;;
2022/05/24 11:16:03;;;;;;;;;;;;;;;;;;;;;
2022/05/24 11:21:37;;;;;;;;;0.00;0.00;;;;;21.65;43.92;100141.19;4895696;28;45400;-86
2022/05/24 12:59:16;;;;;;;;;1.00;1.00;;;;;22.94;41.87;100176.22;511521;26;46160;-87
2022/05/24 13:01:55;;;;;;;;;1.67;1.00;;;;;22.92;39.45;100126.59;4904703;28;44842;-87
2022/05/24 13:04:40;;;;;;;;;0.33;0.33;;;;;23.23;38.99;100140.56;4883912;29;44767;-87
2022/05/24 13:11:18;;;;;;;;;1.00;1.00;;;;;23.46;39.07;100115.06;4828183;29;45530;-87
2022/05/24 13:14:10;;;;;;;;;1.00;1.00;;;;;23.74;38.05;100166.13;4746127;30;45613;-86
2022/05/24 13:17:08;;;;;;;;;2.50;2.25;;;;;23.54;38.69;100130.00;4743713;30;45368;-87
2022/05/24 13:20:27;;;;;;;;;;;;;;;;;;;;;
2022/05/24 13:23:01;;;;;;;;;1.33;1.33;;;;;23.67;37.83;100141.13;4727225;30;74144;-87
2022/05/24 13:25:43;;;;;;;;;1.67;1.67;;;;;23.63;37.91;100144.06;4739241;30;45623;-87
2022/05/24 13:28:50;;;;;;;;;;;;;;;;;;;;;
2022/05/24 13:34:39;;;;;;;;;;;;;;;;;;;;;
2022/05/24 13:37:15;;;;;;;;;1.00;1.00;;;;;23.38;39.48;100128.13;4840807;29;73238;-86
2022/05/24 13:40:01;;;;;;;;;0.00;0.00;;;;;23.81;38.01;100167.59;4827394;29;45805;-86
2022/05/24 13:42:51;;;;;;;;;0.50;0.50;;;;;23.86;38.60;100135.69;4827108;29;44882;-88
2022/05/24 13:45:26;;;;;;;;;0.00;0.00;;;;;24.47;38.66;100163.34;4806581;29;46882;-86
2022/05/24 13:47:56;;;;;;;;;0.00;0.00;;;;;24.67;36.99;100170.47;4807893;29;45534;-85
2022/05/24 14:49:16;;;;;;;;;0.67;0.00;;;;;23.57;35.17;100215.81;4874024;29;46517;-87
2022/05/24 14:51:56;;;;;;;;;0.33;0.33;;;;;24.35;33.67;100197.47;4849850;29;44860;-85
2022/05/24 14:54:30;;;;;;;;;0.25;0.25;;;;;26.21;32.64;100208.16;4850222;29;45026;-86
2022/05/24 14:57:02;;;;;;;;;0.00;0.00;;;;;27.71;30.65;100206.97;4842526;29;44897;-87
2022/05/24 15:16:49;;;;;;;;;0.00;0.00;;;;;37.85;19.81;100217.13;4897667;29;45390;-85
2022/05/24 15:19:21;;;;;;;;;0.33;0.33;;;;;34.94;22.17;100246.00;4879448;29;45409;-86
2022/05/24 15:21:53;;;;;;;;;0.25;0.25;;;;;31.75;24.17;100267.81;4894685;29;46372;-84
2022/05/24 15:24:49;;;;;;;;;0.00;0.00;;;;;28.95;27.10;100256.97;4876470;29;45580;-88
2022/05/24 15:36:33;;;;;;;;;1.75;0.00;;;;;23.27;36.68;100334.81;4785176;29;44911;-86
2022/05/24 15:39:06;;;;;;;;;0.00;0.00;;;;;21.93;41.39;100333.16;4796412;29;45328;-84
2022/05/24 15:41:32;;;;;;;;;0.00;0.00;;;;;20.83;44.12;100310.22;4772286;29;45019;-84
2022/05/24 15:44:02;;;;;;;;;0.00;0.00;;;;;20.13;46.04;100296.28;4784845;29;46938;-84
2022/05/24 15:46:32;;;;;;;;;0.00;0.00;;;;;19.87;48.76;100336.72;4786146;29;45297;-86
2022/05/24 15:48:59;;;;;;;;;0.00;0.00;;;;;19.30;48.69;100298.81;4799135;29;45459;-86
2022/05/24 15:51:29;;;;;;;;;0.00;0.00;;;;;19.18;50.69;100328.81;4803481;29;45399;-86
2022/05/24 15:54:13;;;;;;;;;;;;;;;;;;;;;
2022/05/24 15:56:39;;;;;;;;;0.00;0.00;;;;;19.13;48.62;100311.91;4749519;29;72827;-86
2022/05/24 15:59:47;;;;;;;;;0.00;0.00;;;;;19.16;48.54;100325.28;4736696;29;44860;-86
2022/05/24 16:02:13;;;;;;;;;0.00;0.00;;;;;18.94;49.45;100304.31;4733093;29;45497;-85
2022/05/24 16:10:51;;;;;;;;;0.00;0.00;;;;;18.91;50.50;100290.94;4769905;29;44886;-86
2022/05/24 16:13:22;;;;;;;;;0.00;0.00;;;;;19.24;49.69;100341.25;4810774;29;46723;-85
2022/05/24 16:16:06;;;;;;;;;1.00;0.00;;;;;19.14;50.65;100321.75;4837329;29;45576;-86
2022/05/24 16:18:37;;;;;;;;;0.00;0.00;;;;;18.99;49.97;100288.91;4823210;29;45504;-86
2022/05/24 16:21:17;;;;;;;;;0.00;0.00;;;;;19.20;49.67;100286.53;4809358;29;45425;-86
2022/05/24 16:23:43;;;;;;;;;0.33;0.33;;;;;20.13;49.10;100269.28;4821977;29;44977;-85
2022/05/24 16:26:13;;;;;;;;;0.00;0.00;;;;;23.69;46.02;100280.41;4821080;29;48169;-85
2022/05/24 16:28:38;;;;;;;;;0.00;0.00;;;;;26.61;41.68;100265.78;4842685;29;44732;-85
2022/05/24 16:31:07;;;;;;;;;0.00;0.00;;;;;28.71;35.80;100284.19;4843830;29;44905;-86
2022/05/24 16:33:34;;;;;;;;;0.00;0.00;;;;;30.17;31.64;100272.84;4845379;29;45361;-85
2022/05/24 16:36:25;;;;;;;;;1.00;0.00;;;;;32.33;32.12;100297.91;4862427;29;45559;-86
2022/05/24 16:38:59;;;;;;;;;0.33;0.33;;;;;33.76;27.99;100294.63;4858201;29;45392;-86
2022/05/24 16:41:49;;;;;;;;;1.00;1.00;;;;;34.95;27.46;100259.66;4857541;29;45539;-86
2022/05/24 16:44:16;;;;;;;;;1.67;0.00;;;;;35.33;26.88;100279.09;4843568;29;45477;-86
2022/05/24 16:46:44;;;;;;;;;0.00;0.00;;;;;34.10;24.18;100307.22;4858468;29;47008;-85
2022/05/24 16:49:17;;;;;;;;;0.00;0.00;;;;;31.46;25.56;100282.09;4858956;29;45257;-85
2022/05/24 16:52:03;;;;;;;;;0.00;0.00;;;;;29.09;28.67;100305.28;4859302;29;45465;-85
2022/05/24 17:00:13;;;;;;;;;0.00;0.00;;;;;24.46;34.89;100320.16;4856435;29;44831;-84
2022/05/24 17:02:50;;;;;;;;;0.00;0.00;;;;;23.81;36.45;100322.41;4859564;29;44840;-85
2022/05/24 17:05:20;;;;;;;;;0.00;0.00;;;;;23.15;37.54;100314.56;4858318;29;44806;-84
2022/05/24 17:07:46;;;;;;;;;2.00;0.00;;;;;22.55;38.71;100287.34;4854791;29;47689;-86
2022/05/24 17:10:13;;;;;;;;;0.33;0.33;;;;;22.43;38.44;100329.38;4855290;29;45768;-84
2022/05/24 17:12:40;;;;;;;;;1.00;0.00;;;;;22.22;39.33;100324.78;4855016;29;45442;-84
2022/05/24 17:15:10;;;;;;;;;0.00;0.00;;;;;22.01;40.00;100340.97;4855565;29;44951;-85
2022/05/24 17:17:38;;;;;;;;;0.00;0.00;;;;;21.42;40.89;100312.53;4857500;29;46911;-85
2022/05/24 17:20:05;;;;;;;;;1.25;0.25;;;;;21.25;41.72;100342.94;4856724;29;45444;-84
2022/05/24 17:22:30;;;;;;;;;1.00;1.00;;;;;20.93;41.98;100330.56;4856582;29;45530;-85
2022/05/24 17:24:56;;;;;;;;;0.50;0.50;;;;;20.93;42.21;100344.97;4871089;29;45428;-85
2022/05/24 17:27:21;;;;;;;;;0.50;0.50;;;;;21.11;42.40;100345.25;4868643;29;45383;-85
2022/05/24 17:29:49;;;;;;;;;2.00;2.00;;;;;21.24;42.40;100338.44;4868770;29;45279;-84
2022/05/24 17:32:25;;;;;;;;;2.67;1.00;;;;;21.37;42.31;100352.44;4855156;29;45618;-83
2022/05/24 17:34:51;;;;;;;;;0.00;0.00;;;;;21.19;42.70;100353.97;4851099;29;45616;-86
2022/05/24 17:37:19;;;;;;;;;0.00;0.00;;;;;20.95;43.17;100356.59;4851713;29;47486;-85
2022/05/24 17:39:47;;;;;;;;;1.50;0.75;;;;;20.72;43.60;100356.50;4854209;29;45499;-85
2022/05/24 17:45:36;;;;;;;;;0.00;0.00;;;;;20.11;45.52;100362.94;4854854;29;45416;-85
2022/05/24 17:48:06;;;;;;;;;0.50;0.00;;;;;19.88;46.32;100370.91;4853443;29;47172;-84
2022/05/24 17:50:34;;;;;;;;;0.67;0.67;;;;;19.64;46.13;100367.06;4853847;29;45436;-84
2022/05/24 17:53:00;;;;;;;;;0.67;0.67;;;;;19.56;46.70;100373.56;4853801;29;45527;-85
2022/05/24 17:56:15;;;;;;;;;0.00;0.00;;;;;19.64;46.62;100372.47;4854434;29;45473;-85
2022/05/24 17:58:41;;;;;;;;;0.00;0.00;;;;;19.61;47.33;100378.81;4852186;29;46877;-85
2022/05/24 18:01:08;;;;;;;;;1.00;1.00;;;;;19.64;47.68;100373.34;4853991;29;45324;-85
2022/05/24 18:03:34;;;;;;;;;0.00;0.00;;;;;19.50;47.48;100354.84;4852887;29;45717;-85
2022/05/24 18:06:00;;;;;;;;;1.67;1.00;;;;;19.61;47.65;100381.50;4852506;29;45352;-85
2022/05/24 18:08:27;;;;;;;;;2.00;0.67;;;;;19.62;48.04;100390.50;4852090;29;46739;-85
2022/05/24 18:10:52;;;;;;;;;1.75;1.00;;;;;19.29;48.41;100345.59;4854056;29;44870;-84
2022/05/24 18:13:22;;;;;;;;;2.67;2.67;;;;;19.36;48.20;100363.34;4854422;29;45473;-85
2022/05/24 18:15:48;;;;;;;;;1.00;1.00;;;;;19.42;48.72;100369.50;4852657;29;45627;-85
2022/05/24 18:18:13;;;;;;;;;0.00;0.00;;;;;19.46;48.46;100373.88;4851699;29;47356;-85
2022/05/24 18:20:47;;;;;;;;;1.00;0.00;;;;;19.63;48.45;100398.53;4851848;29;45432;-85
2022/05/24 18:23:18;;;;;;;;;1.00;1.00;;;;;19.41;49.14;100371.31;4853939;29;45774;-85
2022/05/24 18:34:12;;;;;;;;;0.00;0.00;;;;;19.53;49.89;100405.13;4851412;29;45478;-85
2022/05/24 18:36:42;;;;;;;;;0.00;0.00;;;;;19.58;49.86;100416.69;4849490;29;45345;-84
2022/05/24 18:39:07;;;;;;;;;0.00;0.00;;;;;19.55;50.10;100411.38;4851251;29;46385;-85
2022/05/24 18:41:34;;;;;;;;;1.00;1.00;;;;;19.53;50.35;100399.72;4849344;29;45523;-85
2022/05/24 18:44:01;;;;;;;;;0.00;0.00;;;;;19.66;50.58;100411.94;4851329;29;44877;-85
2022/05/24 18:46:27;;;;;;;;;0.67;0.00;;;;;19.61;50.30;100415.69;4852529;29;45413;-85
2022/05/24 18:48:52;;;;;;;;;0.00;0.00;;;;;19.60;50.70;100414.81;4855981;29;45386;-85
2022/05/24 18:51:18;;;;;;;;;0.00;0.00;;;;;19.62;50.58;100414.78;4857696;29;45438;-85
2022/05/24 18:53:43;;;;;;;;;2.00;0.00;;;;;19.59;50.31;100410.34;4854197;29;45475;-85
2022/05/24 18:56:09;;;;;;;;;0.00;0.00;;;;;19.61;49.27;100411.19;4855549;29;45540;-85
2022/05/24 18:58:35;;;;;;;;;0.00;0.00;;;;;19.64;49.00;100410.25;4855798;29;45419;-85
2022/05/24 19:01:06;;;;;;;;;0.33;0.33;;;;;19.75;48.49;100427.94;4854401;29;45503;-85
2022/05/24 19:03:34;;;;;;;;;0.00;0.00;;;;;19.68;48.75;100414.63;4854819;29;45499;-85
2022/05/24 19:06:00;;;;;;;;;0.00;0.00;;;;;19.59;48.57;100421.13;4855725;29;45579;-85
2022/05/24 19:08:26;;;;;;;;;0.00;0.00;;;;;19.57;49.29;100426.59;4855932;29;45390;-85
2022/05/24 19:10:51;;;;;;;;;0.67;0.00;;;;;19.50;49.28;100440.28;4855947;29;45425;-85
2022/05/24 19:13:17;;;;;;;;;0.00;0.00;;;;;19.22;49.42;100414.06;4854796;29;45828;-85
2022/05/24 19:15:44;;;;;;;;;0.00;0.00;;;;;19.22;49.58;100430.25;4855276;29;45487;-84
2022/05/24 19:21:33;;;;;;;;;1.00;0.00;;;;;19.14;50.14;100451.13;4859314;29;45393;-85
2022/05/24 19:23:59;;;;;;;;;1.00;0.00;;;;;18.99;49.83;100447.91;4859076;29;45416;-85